KDAY/DAY METAR and TAF weather

Enter ICAO airport designator
Station Type Date Time Source
KDAY METAR 2023/01/30 10:56 UTC NOAA

KDAY 301056Z 36006KT 4SM BR OVC004 00/M02 A3018 RMK AO2 SLP228 T00001017 $


Station Type Date Time Source
KDAY Decoded METAR 2023/01/30 10:56 UTC NOAA

COX DAYTON INTERNATIONAL, OH, United States (KDAY) 39-54N 084-13W 305M
Jan 30, 2023 - 05:56 AM EST / 2023.01.30 1056 UTC
Wind: from the N (360 degrees) at 7 MPH (6 KT):0
Visibility: 4 mile(s):0
Sky conditions: overcast
Weather: mist
Temperature: 32.0 F (0.0 C)
Windchill: 24 F (-4 C):1
Dew Point: 28.9 F (-1.7 C)
Relative Humidity: 88%
Pressure (altimeter): 30.18 in. Hg (1022 hPa)
ob: KDAY 301056Z 36006KT 4SM BR OVC004 00/M02 A3018 RMK AO2 SLP228 T00001017
cycle: 11

Station Type Date Time Source
KDAY TAF 2023/01/30 06:39 UTC NOAA

TAF KDAY 300536Z 3006/3106 34010KT 2SM -DZ BR OVC005
TEMPO 3006/3010 1 1/2SM -FZDZ BR OVC004
FM301000 35005KT 2SM BR VCSH OVC003
FM301800 33009KT P6SM OVC008
FM310000 34008KT P6SM OVC011

Example: see airport list